createdAt,value
2022-11-16T00:02:04.200Z,22.5
2022-11-16T00:07:04.177Z,22
2022-11-16T00:12:04.150Z,22
2022-11-16T00:17:04.142Z,22
2022-11-16T00:22:04.123Z,22
2022-11-16T00:27:04.103Z,22
2022-11-16T00:32:04.073Z,22.5
2022-11-16T00:37:04.058Z,22.5
2022-11-16T00:42:04.034Z,22.5
2022-11-16T00:47:04.011Z,22
2022-11-16T00:52:03.993Z,22
2022-11-16T00:57:03.973Z,22.5
2022-11-16T01:02:03.959Z,22.5
2022-11-16T01:07:03.937Z,22
2022-11-16T01:12:03.917Z,22
2022-11-16T01:17:03.899Z,22
2022-11-16T01:22:03.883Z,22
2022-11-16T01:27:03.857Z,22
2022-11-16T01:32:03.849Z,22
2022-11-16T01:37:03.824Z,22
2022-11-16T01:42:03.813Z,22
2022-11-16T01:47:03.772Z,22
2022-11-16T01:52:03.763Z,22
2022-11-16T01:57:03.737Z,22
2022-11-16T02:02:03.721Z,22.5
2022-11-16T02:07:03.699Z,22
2022-11-16T02:12:03.680Z,22.5
2022-11-16T02:17:03.898Z,22
2022-11-16T02:22:03.651Z,22.5
2022-11-16T02:27:03.618Z,22
2022-11-16T02:32:03.596Z,22
2022-11-16T02:37:03.581Z,22
2022-11-16T02:42:03.564Z,22
2022-11-16T02:47:03.543Z,22
2022-11-16T02:52:03.520Z,22
2022-11-16T02:57:03.498Z,22
2022-11-16T03:02:03.483Z,22
2022-11-16T03:07:03.465Z,22
2022-11-16T03:12:03.449Z,22
2022-11-16T03:17:03.440Z,21.5
2022-11-16T03:22:03.411Z,22
2022-11-16T03:27:03.386Z,22
2022-11-16T03:32:03.363Z,22
2022-11-16T03:37:03.342Z,22
2022-11-16T03:42:03.336Z,22
2022-11-16T03:47:03.306Z,22
2022-11-16T03:52:03.289Z,22
2022-11-16T03:57:03.280Z,22
2022-11-16T04:02:03.240Z,22
2022-11-16T04:07:03.221Z,22
2022-11-16T04:12:03.202Z,22
2022-11-16T04:17:03.181Z,22
2022-11-16T04:22:03.158Z,21.5
2022-11-16T04:27:03.148Z,21
2022-11-16T04:32:03.135Z,21
2022-11-16T04:37:03.112Z,21
2022-11-16T04:42:03.088Z,21
2022-11-16T04:47:03.064Z,20.5
2022-11-16T04:52:03.045Z,21
2022-11-16T04:57:03.024Z,21
2022-11-16T05:02:03.004Z,21
2022-11-16T05:07:02.995Z,21
2022-11-16T05:12:02.961Z,20.5
2022-11-16T05:17:02.947Z,21
2022-11-16T05:22:02.930Z,21
2022-11-16T05:27:02.927Z,21.5
2022-11-16T05:32:02.885Z,21.5
2022-11-16T05:37:02.886Z,21.5
2022-11-16T05:42:02.851Z,21.5
2022-11-16T05:47:02.829Z,21.5
2022-11-16T05:52:02.810Z,21.5
2022-11-16T05:57:02.906Z,21.5
2022-11-16T06:02:02.764Z,21.5
2022-11-16T06:12:02.740Z,21.5
2022-11-16T06:22:02.688Z,21.5
2022-11-16T06:27:02.685Z,21.5
2022-11-16T06:32:02.654Z,21.5
2022-11-16T06:37:02.659Z,21.5
2022-11-16T06:42:02.618Z,22
2022-11-16T06:47:02.607Z,22
2022-11-16T06:52:02.573Z,22
2022-11-16T06:57:02.578Z,22
2022-11-16T07:02:02.525Z,22
2022-11-16T07:07:02.524Z,22
2022-11-16T07:12:02.516Z,22
2022-11-16T07:17:02.473Z,22
2022-11-16T07:22:02.457Z,22
2022-11-16T07:27:02.431Z,21.5
2022-11-16T07:32:02.430Z,21.5
2022-11-16T07:37:02.394Z,21.5
2022-11-16T07:42:02.390Z,21.5
2022-11-16T07:47:02.360Z,21.5
2022-11-16T07:52:02.364Z,21.5
2022-11-16T07:57:02.319Z,21
2022-11-16T08:02:02.304Z,21
2022-11-16T08:07:02.318Z,21
2022-11-16T08:12:02.287Z,21
2022-11-16T08:17:02.237Z,20.5
2022-11-16T08:22:02.216Z,20
2022-11-16T08:27:02.206Z,20
2022-11-16T08:32:02.182Z,20
2022-11-16T08:37:02.215Z,19.5
2022-11-16T08:42:02.141Z,19.5
2022-11-16T08:47:02.153Z,20
2022-11-16T08:52:02.096Z,19
2022-11-16T08:57:02.079Z,19.5
2022-11-16T09:02:02.055Z,18.5
2022-11-16T09:07:02.036Z,19
2022-11-16T09:12:02.011Z,19
2022-11-16T09:17:01.990Z,18.5
2022-11-16T09:22:01.970Z,19
2022-11-16T09:27:01.953Z,18
2022-11-16T09:32:01.939Z,15
2022-11-16T09:37:01.919Z,12.5
2022-11-16T09:42:01.939Z,8.5
2022-11-16T09:47:01.898Z,3.5
2022-11-16T09:52:01.851Z,0
2022-11-16T09:57:01.829Z,0
2022-11-16T10:02:01.845Z,0
2022-11-16T10:07:01.785Z,100
2022-11-16T10:12:01.763Z,100
2022-11-16T10:17:01.742Z,95.5
2022-11-16T10:22:01.722Z,94
2022-11-16T10:27:01.703Z,81.5
2022-11-16T10:32:01.673Z,78
2022-11-16T10:37:01.664Z,79
2022-11-16T10:42:01.637Z,80
2022-11-16T10:47:01.657Z,90
2022-11-16T10:52:01.604Z,95
2022-11-16T10:57:01.597Z,93.5
2022-11-16T11:02:01.541Z,79.5
2022-11-16T11:07:01.519Z,73.5
2022-11-16T11:12:01.497Z,71
2022-11-16T11:17:01.485Z,65.5
2022-11-16T11:22:01.475Z,64.5
2022-11-16T11:27:01.441Z,68
2022-11-16T11:32:01.421Z,70
2022-11-16T11:42:01.386Z,80.5
2022-11-16T11:47:01.355Z,78.5
2022-11-16T11:52:01.333Z,80
2022-11-16T11:57:01.312Z,81
2022-11-16T12:02:01.291Z,82.5
2022-11-16T12:07:01.294Z,87
2022-11-16T12:12:01.243Z,86
2022-11-16T12:17:01.224Z,88.5
2022-11-16T12:22:01.205Z,92
2022-11-16T12:27:01.238Z,92
2022-11-16T12:32:01.168Z,97
2022-11-16T12:37:01.152Z,93.5
2022-11-16T12:42:01.124Z,91.5
2022-11-16T12:47:01.115Z,94.5
2022-11-16T12:52:01.078Z,93.5
2022-11-16T12:57:01.065Z,94.5
2022-11-16T13:02:01.052Z,91.5
2022-11-16T13:07:01.025Z,91.5
2022-11-16T13:12:01.004Z,90
2022-11-16T13:17:00.981Z,90.5
2022-11-16T13:22:00.956Z,93.5
2022-11-16T13:27:00.936Z,98
2022-11-16T13:32:00.950Z,98.5
2022-11-16T13:37:00.907Z,100
2022-11-16T13:42:00.876Z,100
2022-11-16T13:47:00.945Z,100
2022-11-16T13:52:00.840Z,100
2022-11-16T13:57:00.838Z,100
2022-11-16T14:02:00.814Z,100
2022-11-16T14:07:00.772Z,100
2022-11-16T14:12:00.748Z,100
2022-11-16T14:17:00.733Z,100
2022-11-16T14:22:00.714Z,100
2022-11-16T14:27:00.690Z,100
2022-11-16T14:32:00.665Z,100
2022-11-16T14:37:00.640Z,100
2022-11-16T14:47:00.596Z,100
2022-11-16T14:52:00.587Z,100
2022-11-16T14:57:00.565Z,100
2022-11-16T15:02:00.542Z,100
2022-11-16T15:07:00.523Z,100
2022-11-16T15:12:00.500Z,100
2022-11-16T15:17:00.512Z,100
2022-11-16T15:22:00.474Z,100
2022-11-16T15:27:00.437Z,0.5
2022-11-16T15:32:00.423Z,3
2022-11-16T15:37:00.475Z,3
2022-11-16T15:42:00.399Z,5
2022-11-16T15:47:00.364Z,6.5
2022-11-16T15:52:00.436Z,7.5
2022-11-16T15:57:00.332Z,8.5
2022-11-16T16:02:00.376Z,8.5
2022-11-16T16:07:00.290Z,9.5
2022-11-16T16:12:00.262Z,10
2022-11-16T16:17:00.239Z,10
2022-11-16T16:22:00.228Z,10
2022-11-16T16:27:00.203Z,11
2022-11-16T16:32:00.216Z,11
2022-11-16T16:37:00.169Z,11.5
2022-11-16T16:42:00.164Z,12
2022-11-16T16:47:00.128Z,12.5
2022-11-16T16:52:00.118Z,12.5
2022-11-16T16:57:00.085Z,12.5
2022-11-16T17:02:00.096Z,12.5
2022-11-16T17:07:00.073Z,12.5
2022-11-16T17:12:00.031Z,13
2022-11-16T17:17:00.063Z,13
2022-11-16T17:22:00.190Z,13
2022-11-16T17:27:00.027Z,13
2022-11-16T17:31:59.990Z,13
2022-11-16T17:36:59.960Z,13.5
2022-11-16T17:46:59.898Z,14
2022-11-16T17:51:59.949Z,14.5
2022-11-16T17:56:59.855Z,14
2022-11-16T18:01:59.930Z,14
2022-11-16T18:06:59.822Z,14.5
2022-11-16T18:11:59.816Z,15
2022-11-16T18:16:59.784Z,15.5
2022-11-16T18:21:59.755Z,15.5
2022-11-16T18:26:59.828Z,16
2022-11-16T18:31:59.729Z,16.5
2022-11-16T18:36:59.719Z,16.5
2022-11-16T18:41:59.763Z,16.5
2022-11-16T18:46:59.697Z,16.5
2022-11-16T18:51:59.625Z,16.5
2022-11-16T18:56:59.612Z,17
2022-11-16T19:01:59.634Z,17.5
2022-11-16T19:06:59.582Z,17.5
2022-11-16T19:11:59.615Z,17.5
2022-11-16T19:16:59.612Z,18
2022-11-16T19:21:59.539Z,18
2022-11-16T19:26:59.532Z,18
2022-11-16T19:31:59.471Z,18
2022-11-16T19:36:59.590Z,17.5
2022-11-16T19:41:59.561Z,16.5
2022-11-16T19:46:59.478Z,16.5
2022-11-16T19:51:59.403Z,16.5
2022-11-16T19:56:59.430Z,17
2022-11-16T20:01:59.453Z,17.5
2022-11-16T20:06:59.340Z,17.5
2022-11-16T20:11:59.322Z,18
2022-11-16T20:16:59.319Z,18
2022-11-16T20:21:59.280Z,18
2022-11-16T20:26:59.331Z,17.5
2022-11-16T20:31:59.305Z,17
2022-11-16T20:36:59.278Z,16.5
2022-11-16T20:41:59.204Z,17
2022-11-16T20:46:59.236Z,17.5
2022-11-16T20:51:59.261Z,17.5
2022-11-16T20:56:59.137Z,17.5
2022-11-16T21:01:59.133Z,17.5
2022-11-16T21:06:59.103Z,17.5
2022-11-16T21:11:59.136Z,18
2022-11-16T21:16:59.176Z,18
2022-11-16T21:21:59.227Z,18
2022-11-16T21:26:59.169Z,17.5
2022-11-16T21:31:59.031Z,17.5
2022-11-16T21:36:59.036Z,18
2022-11-16T21:41:58.977Z,18
2022-11-16T21:46:58.953Z,17.5
2022-11-16T21:51:58.926Z,17.5
2022-11-16T21:56:58.912Z,17.5
2022-11-16T22:01:59.002Z,18
2022-11-16T22:11:58.849Z,17
2022-11-16T22:16:58.872Z,16.5
2022-11-16T22:21:58.811Z,15.5
2022-11-16T22:26:58.799Z,15
2022-11-16T22:31:58.772Z,14
2022-11-16T22:36:58.758Z,14.5
2022-11-16T22:41:58.731Z,14.5
2022-11-16T22:46:58.791Z,14.5
2022-11-16T22:51:58.753Z,13.5
2022-11-16T22:56:58.677Z,14
2022-11-16T23:01:58.671Z,13
2022-11-16T23:06:58.639Z,13.5
2022-11-16T23:11:58.611Z,14
2022-11-16T23:16:58.603Z,14
2022-11-16T23:21:58.581Z,14.5
2022-11-16T23:26:58.590Z,14
2022-11-16T23:31:58.674Z,14.5
2022-11-16T23:36:58.523Z,15
2022-11-16T23:41:58.581Z,15
2022-11-16T23:46:58.495Z,14.5
2022-11-16T23:51:58.459Z,14.5
2022-11-16T23:56:58.442Z,15
